createdAt,value
2022-09-27T00:00:58.938Z,99074.25
2022-09-27T00:03:29.925Z,99072.91
2022-09-27T00:06:10.814Z,99072.42
2022-09-27T00:08:41.812Z,99071.83
2022-09-27T00:11:18.929Z,99070.17
2022-09-27T00:13:49.833Z,99072.77
2022-09-27T00:16:21.174Z,99073.08
2022-09-27T00:18:52.445Z,99069.31
2022-09-27T00:21:23.361Z,99067.06
2022-09-27T00:23:54.253Z,99066.38
2022-09-27T00:26:25.346Z,99059.86
2022-09-27T00:28:56.547Z,99056.27
2022-09-27T00:31:30.461Z,99051.65
2022-09-27T00:34:03.562Z,99053.89
2022-09-27T00:36:35.773Z,99052.73
2022-09-27T00:39:06.914Z,99050.55
2022-09-27T00:41:38.878Z,99046.17
2022-09-27T00:44:40.271Z,99040.87
2022-09-27T00:47:16.440Z,99036.05
2022-09-27T00:49:52.091Z,99035.34
2022-09-27T00:52:27.212Z,99031.86
2022-09-27T00:55:04.146Z,99030.45
2022-09-27T00:57:35.748Z,99032.77
2022-09-27T01:00:10.997Z,99031.80
2022-09-27T01:02:45.667Z,99031.65
2022-09-27T01:05:20.386Z,99024.84
2022-09-27T01:07:51.365Z,99023.58
2022-09-27T01:10:25.439Z,99016.24
2022-09-27T01:13:07.616Z,99019.75
2022-09-27T01:15:48.531Z,99020.03
2022-09-27T01:18:32.237Z,99021.73
2022-09-27T01:21:37.581Z,99016.71
2022-09-27T01:24:38.317Z,99015.64
2022-09-27T01:33:33.595Z,99013.92
2022-09-27T01:36:13.359Z,99015.26
2022-09-27T01:39:01.049Z,99012.61
2022-09-27T01:41:40.698Z,99011.35
2022-09-27T01:44:25.310Z,99005.98
2022-09-27T01:47:02.963Z,99005.10
2022-09-27T01:49:55.395Z,99006.48
2022-09-27T01:52:32.904Z,99001.89
2022-09-27T01:55:10.712Z,99003.68
2022-09-27T01:58:02.007Z,99003.60
2022-09-27T02:00:34.276Z,98996.81
2022-09-27T02:03:10.608Z,98997.29
2022-09-27T02:05:46.923Z,98995.27
2022-09-27T02:08:40.213Z,98999.17
2022-09-27T02:11:17.142Z,98995.09
2022-09-27T02:13:59.557Z,98997.96
2022-09-27T02:16:50.993Z,98994.79
2022-09-27T02:19:35.269Z,98988.11
2022-09-27T02:22:17.134Z,98981.17
2022-09-27T02:24:54.530Z,98980.15
2022-09-27T02:27:31.171Z,98981.21
2022-09-27T02:30:08.600Z,98981.23
2022-09-27T02:32:40.052Z,98983.94
2022-09-27T02:35:17.229Z,98979.52
2022-09-27T02:37:49.320Z,98981.68
2022-09-27T02:40:21.276Z,98977.15
2022-09-27T02:42:53.032Z,98972.70
2022-09-27T02:45:24.998Z,98972.55
2022-09-27T02:48:11.595Z,98973.77
2022-09-27T02:51:00.765Z,98971.25
2022-09-27T02:54:04.320Z,98969.11
2022-09-27T02:57:04.428Z,98965.44
2022-09-27T03:00:05.353Z,98958.40
2022-09-27T03:03:00.542Z,98956.90
2022-09-27T03:06:02.655Z,98956.09
2022-09-27T03:08:33.812Z,98956.30
2022-09-27T03:11:04.900Z,98960.05
2022-09-27T03:13:55.500Z,98957.60
2022-09-27T03:16:30.550Z,98953.58
2022-09-27T03:19:14.704Z,98957.24
2022-09-27T03:22:08.622Z,98960.04
2022-09-27T03:24:39.508Z,98960.55
2022-09-27T03:27:11.082Z,98958.13
2022-09-27T03:29:42.012Z,98963.10
2022-09-27T03:32:13.179Z,98959.95
2022-09-27T03:35:13.376Z,98956.58
2022-09-27T03:37:44.947Z,98956.09
2022-09-27T03:40:15.916Z,98948.80
2022-09-27T03:42:49.763Z,98943.40
2022-09-27T03:45:21.284Z,98937.46
2022-09-27T03:47:52.178Z,98932.02
2022-09-27T03:50:23.418Z,98932.96
2022-09-27T03:52:54.840Z,98929.95
2022-09-27T03:55:26.240Z,98930.25
2022-09-27T03:57:57.243Z,98929.88
2022-09-27T04:00:29.038Z,98930.16
2022-09-27T04:03:00.372Z,98933.64
2022-09-27T04:05:33.196Z,98932.65
2022-09-27T04:08:07.983Z,98928.17
2022-09-27T04:10:39.023Z,98921.79
2022-09-27T04:13:10.147Z,98915.44
2022-09-27T04:15:51.401Z,98912.92
2022-09-27T04:18:59.375Z,98915.48
2022-09-27T04:21:42.357Z,98915.33
2022-09-27T04:24:14.877Z,98914.59
2022-09-27T04:26:52.998Z,98913.84
2022-09-27T04:29:27.098Z,98910.12
2022-09-27T04:31:59.317Z,98909.52
2022-09-27T04:35:01.599Z,98909.08
2022-09-27T04:37:33.263Z,98910.44
2022-09-27T04:40:07.415Z,98910.36
2022-09-27T04:42:38.938Z,98912.06
2022-09-27T04:45:13.642Z,98910.44
2022-09-27T04:47:47.757Z,98917.83
2022-09-27T04:50:20.254Z,98918.10
2022-09-27T04:53:06.235Z,98914.83
2022-09-27T04:55:38.432Z,98917.27
2022-09-27T04:58:09.859Z,98918.65
2022-09-27T05:00:43.396Z,98919.36
2022-09-27T05:03:37.926Z,98922.52
2022-09-27T05:06:17.508Z,98924.50
2022-09-27T05:08:51.247Z,98921.78
2022-09-27T05:11:22.460Z,98919.35
2022-09-27T05:14:32.128Z,98916.08
2022-09-27T05:17:20.532Z,98919.79
2022-09-27T05:20:11.433Z,98914.19
2022-09-27T05:22:47.502Z,98909.70
2022-09-27T05:25:20.038Z,98911.08
2022-09-27T05:27:55.031Z,98907.26
2022-09-27T05:30:26.485Z,98908.04
2022-09-27T05:33:13.004Z,98907.64
2022-09-27T05:35:56.544Z,98907.20
2022-09-27T05:38:30.694Z,98898.88
2022-09-27T05:41:06.716Z,98895.80
2022-09-27T05:43:38.903Z,98894.11
2022-09-27T05:46:10.242Z,98897.95
2022-09-27T05:48:42.450Z,98902.43
2022-09-27T05:51:19.521Z,98900.68
2022-09-27T05:53:50.945Z,98897.61
2022-09-27T05:56:30.902Z,98901.26
2022-09-27T05:59:21.059Z,98903.48
2022-09-27T06:02:14.695Z,98907.05
2022-09-27T06:05:07.583Z,98919.52
2022-09-27T06:07:44.686Z,98924.09
2022-09-27T06:10:23.075Z,98922.23
2022-09-27T06:12:56.096Z,98916.29
2022-09-27T06:15:45.470Z,98914.59
2022-09-27T06:18:18.389Z,98911.30
2022-09-27T06:20:56.155Z,98910.59
2022-09-27T06:23:27.699Z,98903.52
2022-09-27T06:26:05.638Z,98899.50
2022-09-27T06:29:00.500Z,98903.09
2022-09-27T06:31:32.366Z,98904.36
2022-09-27T06:34:13.984Z,98909.77
2022-09-27T06:36:50.709Z,98913.46
2022-09-27T06:39:23.380Z,98911.10
2022-09-27T06:42:33.223Z,98902.89
2022-09-27T06:45:24.743Z,98905.85
2022-09-27T06:48:25.952Z,98894.86
2022-09-27T06:51:12.681Z,98895.13
2022-09-27T06:53:43.745Z,98893.77
2022-09-27T06:56:15.099Z,98894.90
2022-09-27T06:59:15.594Z,98898.60
2022-09-27T07:01:47.767Z,98900.30
2022-09-27T07:04:39.253Z,98909.35
2022-09-27T07:07:44.183Z,98921.30
2022-09-27T07:10:17.310Z,98921.18
2022-09-27T07:12:52.420Z,98926.59
2022-09-27T07:15:23.881Z,98932.59
2022-09-27T07:18:00.785Z,98937.75
2022-09-27T07:20:37.435Z,98935.25
2022-09-27T07:23:09.534Z,98931.89
2022-09-27T07:25:41.098Z,98927.16
2022-09-27T07:28:22.099Z,98931.41
2022-09-27T07:30:57.573Z,98938.46
2022-09-27T07:33:29.325Z,98940.05
2022-09-27T07:36:05.139Z,98942.55
2022-09-27T07:38:37.129Z,98939.13
2022-09-27T07:41:14.986Z,98931.89
2022-09-27T07:43:48.686Z,98931.19
2022-09-27T07:46:20.423Z,98930.52
2022-09-27T07:49:30.082Z,98927.58
2022-09-27T07:52:22.327Z,98923.23
2022-09-27T07:55:17.581Z,98919.95
2022-09-27T07:58:07.784Z,98917.51
2022-09-27T08:00:42.022Z,98920.45
2022-09-27T08:03:16.479Z,98920.95
2022-09-27T08:05:48.881Z,98930.19
2022-09-27T08:08:20.212Z,98928.05
2022-09-27T08:10:54.753Z,98924.90
2022-09-27T08:13:28.339Z,98921.60
2022-09-27T08:16:04.599Z,98922.39
2022-09-27T08:18:50.753Z,98919.23
2022-09-27T08:21:46.594Z,98914.09
2022-09-27T08:24:26.178Z,98919.64
2022-09-27T08:27:13.507Z,98926.84
2022-09-27T08:30:01.790Z,98931.18
2022-09-27T08:32:32.904Z,98932.48
2022-09-27T08:35:07.513Z,98928.66
2022-09-27T08:37:38.630Z,98932.11
2022-09-27T08:40:19.592Z,98930.80
2022-09-27T08:43:01.191Z,98929.16
2022-09-27T08:45:39.968Z,98927.67
2022-09-27T08:48:13.221Z,98929.17
2022-09-27T08:50:52.114Z,98930.38
2022-09-27T08:53:32.038Z,98931.17
2022-09-27T08:56:04.463Z,98934.05
2022-09-27T08:58:50.152Z,98929.73
2022-09-27T09:01:29.297Z,98931.93
2022-09-27T09:04:32.724Z,98933.13
2022-09-27T09:07:16.968Z,98930.84
2022-09-27T09:10:00.200Z,98932.17
2022-09-27T09:12:50.805Z,98932.35
2022-09-27T09:15:56.847Z,98927.41
2022-09-27T09:18:45.215Z,98925.45
2022-09-27T09:21:28.786Z,98919.45
2022-09-27T09:24:20.526Z,98913.59
2022-09-27T09:27:03.699Z,98910.99
2022-09-27T09:30:00.188Z,98906.08
2022-09-27T09:32:40.778Z,98906.05
2022-09-27T09:35:17.546Z,98902.57
2022-09-27T09:37:51.842Z,98897.86
2022-09-27T09:40:31.407Z,98898.55
2022-09-27T09:43:09.265Z,98900.58
2022-09-27T09:45:45.117Z,98900.04
2022-09-27T09:48:27.651Z,98904.83
2022-09-27T09:51:03.099Z,98905.77
2022-09-27T09:53:48.087Z,98902.02
2022-09-27T09:56:25.651Z,98903.38
2022-09-27T09:59:02.416Z,98907.23
2022-09-27T10:01:43.049Z,98909.44
2022-09-27T10:04:17.152Z,98906.46
2022-09-27T10:06:49.394Z,98908.13
2022-09-27T10:09:26.016Z,98906.52
2022-09-27T10:12:29.747Z,98900.83
2022-09-27T10:15:04.199Z,98894.65
2022-09-27T10:17:41.454Z,98893.59
2022-09-27T10:20:26.979Z,98891.10
2022-09-27T10:23:02.539Z,98887.54
2022-09-27T10:25:54.924Z,98886.52
2022-09-27T10:28:55.519Z,98884.80
2022-09-27T10:31:39.015Z,98879.60
2022-09-27T10:34:29.909Z,98880.33
2022-09-27T10:37:20.518Z,98883.10
2022-09-27T10:40:26.608Z,98877.78
2022-09-27T10:42:58.098Z,98873.11
2022-09-27T10:45:35.178Z,98872.68
2022-09-27T10:48:24.016Z,98878.80
2022-09-27T10:51:03.008Z,98875.94
2022-09-27T10:53:48.696Z,98874.96
2022-09-27T10:56:30.910Z,98863.31
2022-09-27T10:59:04.367Z,98862.96
2022-09-27T11:01:45.867Z,98871.91
2022-09-27T11:04:41.574Z,98874.62
2022-09-27T11:07:20.223Z,98867.40
2022-09-27T11:10:04.291Z,98868.17
2022-09-27T11:12:42.134Z,98865.09
2022-09-27T11:15:21.102Z,98862.88
2022-09-27T11:18:02.533Z,98858.73
2022-09-27T11:20:38.883Z,98851.86
2022-09-27T11:23:26.710Z,98846.34
2022-09-27T11:26:14.752Z,98846.70
2022-09-27T11:28:59.808Z,98844.89
2022-09-27T11:32:02.588Z,98841.85
2022-09-27T11:34:47.156Z,98841.89
2022-09-27T11:37:30.496Z,98838.34
2022-09-27T11:40:14.309Z,98835.57
2022-09-27T11:43:11.917Z,98831.78
2022-09-27T11:49:02.898Z,98825.83
2022-09-27T11:51:54.698Z,98819.44
2022-09-27T11:54:42.118Z,98820.01
2022-09-27T11:57:23.803Z,98819.02
2022-09-27T12:00:07.780Z,98820.45
2022-09-27T12:03:14.375Z,98821.91
2022-09-27T12:06:07.087Z,98819.36
2022-09-27T12:08:52.350Z,98821.84
2022-09-27T12:11:28.303Z,98818.47
2022-09-27T12:14:03.950Z,98814.80
2022-09-27T12:16:37.088Z,98809.36
2022-09-27T12:19:18.333Z,98810.76
2022-09-27T12:22:07.502Z,98813.25
2022-09-27T12:24:42.203Z,98810.87
2022-09-27T12:27:32.193Z,98810.73
2022-09-27T12:30:04.967Z,98809.77
2022-09-27T12:32:44.959Z,98803.42
2022-09-27T12:35:21.971Z,98799.00
2022-09-27T12:37:59.512Z,98800.92
2022-09-27T12:40:34.274Z,98796.69
2022-09-27T12:43:13.428Z,98790.09
2022-09-27T12:46:18.880Z,98790.19
2022-09-27T12:49:00.974Z,98786.62
2022-09-27T12:51:38.221Z,98790.52
2022-09-27T12:54:44.579Z,98791.64
2022-09-27T12:57:19.233Z,98791.80
2022-09-27T12:59:59.780Z,98792.60
2022-09-27T13:03:18.177Z,98791.03
2022-09-27T13:06:43.241Z,98781.42
2022-09-27T13:09:45.322Z,98782.06
2022-09-27T13:12:20.200Z,98776.95
2022-09-27T13:15:00.524Z,98776.61
2022-09-27T13:17:56.394Z,98769.30
2022-09-27T13:20:49.281Z,98776.56
2022-09-27T13:24:00.479Z,98772.40
2022-09-27T13:26:51.893Z,98761.26
2022-09-27T13:29:33.219Z,98762.30
2022-09-27T13:32:29.120Z,98761.52
2022-09-27T13:35:25.021Z,98762.23
2022-09-27T13:38:24.973Z,98752.08
2022-09-27T13:41:17.828Z,98751.56
2022-09-27T13:44:09.270Z,98752.48
2022-09-27T13:46:54.572Z,98742.40
2022-09-27T13:49:32.303Z,98739.89
2022-09-27T13:52:23.450Z,98735.90
2022-09-27T13:55:44.512Z,98734.60
2022-09-27T13:58:50.815Z,98732.06
2022-09-27T14:01:47.325Z,98731.78
2022-09-27T14:04:22.379Z,98728.11
2022-09-27T14:06:57.878Z,98726.66
2022-09-27T14:09:33.775Z,98724.55
2022-09-27T14:12:13.573Z,98720.09
2022-09-27T14:14:45.605Z,98716.48
2022-09-27T14:17:17.412Z,98716.67
2022-09-27T14:19:50.738Z,98715.77
2022-09-27T14:22:23.799Z,98711.69
2022-09-27T14:25:20.530Z,98713.85
2022-09-27T14:27:54.192Z,98712.45
2022-09-27T14:30:42.485Z,98708.54
2022-09-27T14:33:35.463Z,98708.35
2022-09-27T14:36:43.597Z,98710.27
2022-09-27T14:39:25.768Z,98711.70
2022-09-27T14:41:58.263Z,98711.73
2022-09-27T14:44:30.908Z,98715.52
2022-09-27T14:47:21.426Z,98712.09
2022-09-27T14:49:53.775Z,98710.11
2022-09-27T14:52:29.013Z,98714.30
2022-09-27T14:55:00.190Z,98714.02
2022-09-27T14:57:34.638Z,98711.34
2022-09-27T15:00:20.797Z,98710.73
2022-09-27T15:02:55.569Z,98704.60
2022-09-27T15:05:30.864Z,98706.25
2022-09-27T15:08:04.690Z,98705.39
2022-09-27T15:10:38.721Z,98710.45
2022-09-27T15:13:14.309Z,98708.78
2022-09-27T15:15:46.812Z,98710.34
2022-09-27T15:18:40.960Z,98708.08
2022-09-27T15:21:13.579Z,98708.00
2022-09-27T15:23:46.448Z,98712.27
2022-09-27T15:26:20.468Z,98708.51
2022-09-27T15:28:53.523Z,98704.95
2022-09-27T15:31:34.895Z,98704.99
2022-09-27T15:34:07.051Z,98703.52
2022-09-27T15:37:00.389Z,98702.20
2022-09-27T15:39:34.595Z,98700.91
2022-09-27T15:42:08.990Z,98700.73
2022-09-27T15:44:49.556Z,98694.48
2022-09-27T15:47:48.744Z,98691.77
2022-09-27T15:50:37.860Z,98683.86
2022-09-27T15:53:09.527Z,98685.75
2022-09-27T15:55:43.426Z,98680.17
2022-09-27T15:58:20.619Z,98674.99
2022-09-27T16:00:56.493Z,98679.36
2022-09-27T16:03:28.407Z,98677.44
2022-09-27T16:06:01.323Z,98675.48
2022-09-27T16:08:32.739Z,98670.11
2022-09-27T16:11:05.767Z,98670.05
2022-09-27T16:13:36.643Z,98667.90
2022-09-27T16:16:08.608Z,98666.10
2022-09-27T16:18:39.748Z,98666.70
2022-09-27T16:21:10.798Z,98667.51
2022-09-27T16:23:41.812Z,98672.46
2022-09-27T16:26:12.705Z,98672.92
2022-09-27T16:28:43.646Z,98679.44
2022-09-27T16:31:17.928Z,98678.21
2022-09-27T16:33:51.056Z,98684.34
2022-09-27T16:36:22.092Z,98682.40
2022-09-27T16:38:54.083Z,98687.58
2022-09-27T16:41:25.385Z,98687.81
2022-09-27T16:43:56.453Z,98689.38
2022-09-27T16:46:27.522Z,98688.39
2022-09-27T16:48:58.764Z,98687.74
2022-09-27T16:51:47.322Z,98687.60
2022-09-27T16:54:18.427Z,98687.18
2022-09-27T16:56:53.258Z,98683.17
2022-09-27T16:59:26.158Z,98682.77
2022-09-27T17:01:58.221Z,98678.78
2022-09-27T17:04:30.168Z,98676.67
2022-09-27T17:07:01.161Z,98677.64
2022-09-27T17:09:32.654Z,98680.81
2022-09-27T17:12:04.770Z,98681.31
2022-09-27T17:14:37.806Z,98682.15
2022-09-27T17:17:09.505Z,98684.54
2022-09-27T17:19:40.558Z,98692.65
2022-09-27T17:22:11.496Z,98693.79
2022-09-27T17:24:42.536Z,98693.04
2022-09-27T17:27:13.406Z,98691.04
2022-09-27T17:29:44.408Z,98694.81
2022-09-27T17:32:16.097Z,98688.52
2022-09-27T17:34:47.288Z,98689.05
2022-09-27T17:37:18.288Z,98687.77
2022-09-27T17:39:49.287Z,98693.08
2022-09-27T17:42:20.163Z,98695.65
2022-09-27T17:44:51.477Z,98695.11
2022-09-27T17:47:40.561Z,98688.95
2022-09-27T17:50:28.873Z,98688.77
2022-09-27T17:53:00.751Z,98689.14
2022-09-27T17:55:32.784Z,98690.26
2022-09-27T17:58:05.213Z,98690.60
2022-09-27T18:00:36.398Z,98688.40
2022-09-27T18:03:08.198Z,98688.00
2022-09-27T18:05:42.218Z,98687.27
2022-09-27T18:08:13.282Z,98686.50
2022-09-27T18:10:44.302Z,98682.64
2022-09-27T18:13:15.965Z,98681.25
2022-09-27T18:15:59.625Z,98678.77
2022-09-27T18:18:31.202Z,98674.19
2022-09-27T18:21:05.407Z,98676.27
2022-09-27T18:23:36.774Z,98677.08
2022-09-27T18:26:09.297Z,98675.79
2022-09-27T18:28:42.806Z,98674.92
2022-09-27T18:34:04.895Z,98685.64
2022-09-27T18:36:37.557Z,98688.90
2022-09-27T18:39:12.928Z,98689.27
2022-09-27T18:41:44.440Z,98686.34
2022-09-27T18:44:18.210Z,98681.56
2022-09-27T18:46:54.096Z,98686.21
2022-09-27T18:49:28.563Z,98687.23
2022-09-27T18:52:02.808Z,98687.29
2022-09-27T18:54:42.865Z,98687.65
2022-09-27T18:57:14.087Z,98687.19
2022-09-27T18:59:48.377Z,98690.61
2022-09-27T19:02:19.696Z,98684.56
2022-09-27T19:04:52.685Z,98687.30
2022-09-27T19:07:24.189Z,98688.85
2022-09-27T19:09:55.339Z,98686.70
2022-09-27T19:12:26.577Z,98687.38
2022-09-27T19:14:58.377Z,98690.29
2022-09-27T19:17:29.612Z,98690.30
2022-09-27T19:20:00.847Z,98689.63
2022-09-27T19:22:35.018Z,98690.33
2022-09-27T19:25:07.520Z,98684.63
2022-09-27T19:27:43.095Z,98675.82
2022-09-27T19:30:18.700Z,98675.83
2022-09-27T19:32:52.549Z,98671.80
2022-09-27T19:35:23.731Z,98669.70
2022-09-27T19:37:55.087Z,98669.33
2022-09-27T19:40:27.166Z,98667.58
2022-09-27T19:42:58.479Z,98665.27
2022-09-27T19:45:29.670Z,98662.30
2022-09-27T19:48:00.889Z,98659.90
2022-09-27T19:50:32.142Z,98659.22
2022-09-27T19:53:03.717Z,98654.65
2022-09-27T19:55:35.169Z,98651.39
2022-09-27T19:58:06.220Z,98653.67
2022-09-27T20:00:37.834Z,98651.75
2022-09-27T20:03:08.966Z,98645.81
2022-09-27T20:05:40.285Z,98644.42
2022-09-27T20:08:11.836Z,98640.66
2022-09-27T20:10:42.799Z,98638.77
2022-09-27T20:13:14.082Z,98635.11
2022-09-27T20:15:44.988Z,98630.33
2022-09-27T20:18:17.918Z,98630.11
2022-09-27T20:20:49.347Z,98624.63
2022-09-27T20:23:24.966Z,98625.27
2022-09-27T20:25:59.773Z,98621.50
2022-09-27T20:28:31.175Z,98623.91
2022-09-27T20:31:04.410Z,98624.05
2022-09-27T20:33:50.083Z,98627.96
2022-09-27T20:36:23.893Z,98625.05
2022-09-27T20:39:01.091Z,98620.94
2022-09-27T20:41:34.186Z,98620.80
2022-09-27T20:44:06.827Z,98623.46
2022-09-27T20:46:39.404Z,98623.39
2022-09-27T20:49:12.914Z,98625.30
2022-09-27T20:51:45.222Z,98622.17
2022-09-27T20:54:16.419Z,98626.66
2022-09-27T20:56:49.410Z,98625.73
2022-09-27T20:59:22.356Z,98624.17
2022-09-27T21:01:54.588Z,98631.33
2022-09-27T21:04:25.651Z,98626.84
2022-09-27T21:06:58.520Z,98625.03
2022-09-27T21:09:29.682Z,98632.44
2022-09-27T21:12:00.504Z,98628.33
2022-09-27T21:14:31.450Z,98628.36
2022-09-27T21:17:02.372Z,98630.37
2022-09-27T21:19:34.998Z,98632.92
2022-09-27T21:22:05.834Z,98626.73
2022-09-27T21:24:37.171Z,98625.28
2022-09-27T21:27:08.084Z,98619.64
2022-09-27T21:29:38.957Z,98624.24
2022-09-27T21:32:09.874Z,98628.56
2022-09-27T21:34:40.736Z,98624.58
2022-09-27T21:37:12.129Z,98629.27
2022-09-27T21:39:43.026Z,98621.64
2022-09-27T21:42:13.877Z,98618.65
2022-09-27T21:44:44.812Z,98621.58
2022-09-27T21:47:16.790Z,98615.04
2022-09-27T21:49:47.649Z,98612.86
2022-09-27T21:52:18.466Z,98606.08
2022-09-27T21:54:49.336Z,98603.39
2022-09-27T21:57:20.593Z,98600.10
2022-09-27T21:59:51.550Z,98594.70
2022-09-27T22:02:23.635Z,98596.52
2022-09-27T22:04:54.792Z,98589.52
2022-09-27T22:07:25.627Z,98587.67
2022-09-27T22:09:56.526Z,98581.13
2022-09-27T22:12:27.405Z,98577.80
2022-09-27T22:14:58.248Z,98576.98
2022-09-27T22:17:29.137Z,98576.70
2022-09-27T22:19:59.953Z,98575.56
2022-09-27T22:22:30.757Z,98569.58
2022-09-27T22:25:01.566Z,98568.57
2022-09-27T22:27:33.085Z,98565.98
2022-09-27T22:30:04.104Z,98563.27
2022-09-27T22:32:34.993Z,98558.45
2022-09-27T22:35:06.601Z,98554.52
2022-09-27T22:37:37.938Z,98548.05
2022-09-27T22:40:10.804Z,98547.98
2022-09-27T22:42:41.699Z,98546.88
2022-09-27T22:45:13.364Z,98543.88
2022-09-27T22:47:44.293Z,98544.04
2022-09-27T22:50:15.176Z,98541.38
2022-09-27T22:52:46.074Z,98541.52
2022-09-27T22:55:17.131Z,98540.44
2022-09-27T22:57:48.394Z,98540.86
2022-09-27T23:00:19.377Z,98542.70
2022-09-27T23:02:54.764Z,98544.95
2022-09-27T23:05:25.883Z,98540.21
2022-09-27T23:07:56.798Z,98537.31
2022-09-27T23:10:28.079Z,98537.63
2022-09-27T23:12:59.495Z,98532.78
2022-09-27T23:15:30.686Z,98530.80
2022-09-27T23:18:02.228Z,98530.45
2022-09-27T23:20:34.302Z,98527.44
2022-09-27T23:23:05.173Z,98529.14
2022-09-27T23:25:36.091Z,98528.65
2022-09-27T23:28:06.969Z,98529.45
2022-09-27T23:30:40.285Z,98526.05
2022-09-27T23:33:12.452Z,98526.40
2022-09-27T23:35:43.286Z,98527.92
2022-09-27T23:38:14.697Z,98527.58
2022-09-27T23:40:45.814Z,98524.17
2022-09-27T23:43:16.959Z,98519.89
2022-09-27T23:45:47.871Z,98519.91
2022-09-27T23:48:18.928Z,98521.30
2022-09-27T23:50:49.822Z,98520.90
2022-09-27T23:53:20.794Z,98520.55
2022-09-27T23:56:02.764Z,98516.27
2022-09-27T23:58:36.493Z,98518.06
